sensor_id;sensor_type;location;lat;lon;timestamp;P1;durP1;ratioP1;P2;durP2;ratioP2
52918;SDS011;38793;52.690;6.812;2024-02-26T00:01:42;15.80;;;12.17;;
52918;SDS011;38793;52.690;6.812;2024-02-26T00:04:11;16.40;;;12.70;;
52918;SDS011;38793;52.690;6.812;2024-02-26T00:09:05;22.75;;;11.98;;
52918;SDS011;38793;52.690;6.812;2024-02-26T00:11:32;15.50;;;12.50;;
52918;SDS011;38793;52.690;6.812;2024-02-26T00:13:57;14.77;;;12.33;;
52918;SDS011;38793;52.690;6.812;2024-02-26T00:16:23;13.90;;;11.93;;
52918;SDS011;38793;52.690;6.812;2024-02-26T00:18:49;18.52;;;11.88;;
52918;SDS011;38793;52.690;6.812;2024-02-26T00:21:15;17.77;;;12.57;;
52918;SDS011;38793;52.690;6.812;2024-02-26T00:23:40;16.33;;;12.77;;
52918;SDS011;38793;52.690;6.812;2024-02-26T00:26:06;18.07;;;12.40;;
52918;SDS011;38793;52.690;6.812;2024-02-26T00:30:58;16.10;;;11.90;;
52918;SDS011;38793;52.690;6.812;2024-02-26T00:33:24;16.07;;;13.17;;
52918;SDS011;38793;52.690;6.812;2024-02-26T00:35:49;15.53;;;11.70;;
52918;SDS011;38793;52.690;6.812;2024-02-26T00:38:15;15.60;;;12.53;;
52918;SDS011;38793;52.690;6.812;2024-02-26T00:40:40;15.70;;;11.90;;
52918;SDS011;38793;52.690;6.812;2024-02-26T00:43:09;15.63;;;12.93;;
52918;SDS011;38793;52.690;6.812;2024-02-26T00:45:35;18.40;;;12.90;;
52918;SDS011;38793;52.690;6.812;2024-02-26T00:48:00;15.13;;;11.98;;
52918;SDS011;38793;52.690;6.812;2024-02-26T00:50:29;15.23;;;11.80;;
52918;SDS011;38793;52.690;6.812;2024-02-26T00:52:59;14.65;;;12.52;;
52918;SDS011;38793;52.690;6.812;2024-02-26T00:57:50;17.52;;;11.88;;
52918;SDS011;38793;52.690;6.812;2024-02-26T01:00:16;16.27;;;13.02;;
52918;SDS011;38793;52.690;6.812;2024-02-26T01:02:42;18.38;;;13.50;;
52918;SDS011;38793;52.690;6.812;2024-02-26T01:05:08;18.23;;;12.67;;
52918;SDS011;38793;52.690;6.812;2024-02-26T01:07:34;14.57;;;12.50;;
52918;SDS011;38793;52.690;6.812;2024-02-26T01:10:04;18.25;;;13.30;;
52918;SDS011;38793;52.690;6.812;2024-02-26T01:12:30;17.63;;;14.18;;
52918;SDS011;38793;52.690;6.812;2024-02-26T01:14:57;17.63;;;13.85;;
52918;SDS011;38793;52.690;6.812;2024-02-26T01:17:23;17.45;;;14.50;;
52918;SDS011;38793;52.690;6.812;2024-02-26T01:19:48;20.40;;;15.30;;
52918;SDS011;38793;52.690;6.812;2024-02-26T01:22:14;21.73;;;14.80;;
52918;SDS011;38793;52.690;6.812;2024-02-26T01:24:40;24.20;;;15.33;;
52918;SDS011;38793;52.690;6.812;2024-02-26T01:27:05;20.40;;;15.00;;
52918;SDS011;38793;52.690;6.812;2024-02-26T01:29:32;18.17;;;15.40;;
52918;SDS011;38793;52.690;6.812;2024-02-26T01:31:58;19.13;;;15.37;;
52918;SDS011;38793;52.690;6.812;2024-02-26T01:34:24;20.90;;;15.60;;
52918;SDS011;38793;52.690;6.812;2024-02-26T01:36:49;20.07;;;14.97;;
52918;SDS011;38793;52.690;6.812;2024-02-26T01:39:15;19.70;;;15.33;;
52918;SDS011;38793;52.690;6.812;2024-02-26T01:41:40;20.03;;;15.30;;
52918;SDS011;38793;52.690;6.812;2024-02-26T01:44:06;21.53;;;14.93;;
52918;SDS011;38793;52.690;6.812;2024-02-26T01:46:32;22.55;;;15.52;;
52918;SDS011;38793;52.690;6.812;2024-02-26T01:49:00;17.10;;;13.75;;
52918;SDS011;38793;52.690;6.812;2024-02-26T01:51:27;18.95;;;14.45;;
52918;SDS011;38793;52.690;6.812;2024-02-26T01:56:19;19.65;;;13.95;;
52918;SDS011;38793;52.690;6.812;2024-02-26T01:58:46;17.33;;;13.55;;
52918;SDS011;38793;52.690;6.812;2024-02-26T02:01:12;20.20;;;14.95;;
52918;SDS011;38793;52.690;6.812;2024-02-26T02:03:39;19.85;;;14.70;;
52918;SDS011;38793;52.690;6.812;2024-02-26T02:06:06;18.23;;;14.82;;
52918;SDS011;38793;52.690;6.812;2024-02-26T02:08:33;19.45;;;14.55;;
52918;SDS011;38793;52.690;6.812;2024-02-26T02:11:00;18.45;;;15.32;;
52918;SDS011;38793;52.690;6.812;2024-02-26T02:13:26;19.07;;;15.57;;
52918;SDS011;38793;52.690;6.812;2024-02-26T02:15:51;20.43;;;16.23;;
52918;SDS011;38793;52.690;6.812;2024-02-26T02:18:17;21.33;;;15.73;;
52918;SDS011;38793;52.690;6.812;2024-02-26T02:20:44;21.52;;;16.23;;
52918;SDS011;38793;52.690;6.812;2024-02-26T02:23:10;22.33;;;15.40;;
52918;SDS011;38793;52.690;6.812;2024-02-26T02:25:35;21.52;;;16.77;;
52918;SDS011;38793;52.690;6.812;2024-02-26T02:28:01;22.80;;;16.20;;
52918;SDS011;38793;52.690;6.812;2024-02-26T02:30:28;25.20;;;16.33;;
52918;SDS011;38793;52.690;6.812;2024-02-26T02:32:55;19.58;;;15.35;;
52918;SDS011;38793;52.690;6.812;2024-02-26T02:35:23;23.60;;;16.05;;
52918;SDS011;38793;52.690;6.812;2024-02-26T02:37:51;21.73;;;16.77;;
52918;SDS011;38793;52.690;6.812;2024-02-26T02:40:17;27.23;;;17.48;;
52918;SDS011;38793;52.690;6.812;2024-02-26T02:42:43;24.07;;;18.00;;
52918;SDS011;38793;52.690;6.812;2024-02-26T02:45:09;25.07;;;16.93;;
52918;SDS011;38793;52.690;6.812;2024-02-26T02:47:38;23.13;;;17.85;;
52918;SDS011;38793;52.690;6.812;2024-02-26T02:50:04;23.73;;;18.27;;
52918;SDS011;38793;52.690;6.812;2024-02-26T02:52:30;25.90;;;18.75;;
52918;SDS011;38793;52.690;6.812;2024-02-26T02:54:55;25.40;;;17.60;;
52918;SDS011;38793;52.690;6.812;2024-02-26T02:57:21;24.83;;;18.87;;
52918;SDS011;38793;52.690;6.812;2024-02-26T02:59:47;23.98;;;19.10;;
52918;SDS011;38793;52.690;6.812;2024-02-26T03:02:13;27.20;;;18.57;;
52918;SDS011;38793;52.690;6.812;2024-02-26T03:04:38;25.80;;;18.93;;
52918;SDS011;38793;52.690;6.812;2024-02-26T03:07:04;26.77;;;19.83;;
52918;SDS011;38793;52.690;6.812;2024-02-26T03:09:29;25.27;;;18.90;;
52918;SDS011;38793;52.690;6.812;2024-02-26T03:11:55;28.70;;;20.05;;
52918;SDS011;38793;52.690;6.812;2024-02-26T03:14:21;26.50;;;19.17;;
52918;SDS011;38793;52.690;6.812;2024-02-26T03:16:47;26.07;;;19.03;;
52918;SDS011;38793;52.690;6.812;2024-02-26T03:19:15;30.10;;;18.63;;
52918;SDS011;38793;52.690;6.812;2024-02-26T03:21:43;28.25;;;19.08;;
52918;SDS011;38793;52.690;6.812;2024-02-26T03:24:09;26.97;;;20.10;;
52918;SDS011;38793;52.690;6.812;2024-02-26T03:26:35;28.55;;;19.10;;
52918;SDS011;38793;52.690;6.812;2024-02-26T03:31:28;31.73;;;21.50;;
52918;SDS011;38793;52.690;6.812;2024-02-26T03:33:53;30.67;;;21.55;;
52918;SDS011;38793;52.690;6.812;2024-02-26T03:36:19;34.03;;;22.83;;
52918;SDS011;38793;52.690;6.812;2024-02-26T03:38:46;31.70;;;21.65;;
52918;SDS011;38793;52.690;6.812;2024-02-26T03:41:12;31.77;;;21.00;;
52918;SDS011;38793;52.690;6.812;2024-02-26T03:43:38;34.77;;;22.40;;
52918;SDS011;38793;52.690;6.812;2024-02-26T03:46:04;33.47;;;21.90;;
52918;SDS011;38793;52.690;6.812;2024-02-26T03:48:32;32.67;;;20.70;;
52918;SDS011;38793;52.690;6.812;2024-02-26T03:50:58;32.43;;;20.43;;
52918;SDS011;38793;52.690;6.812;2024-02-26T03:53:23;30.93;;;19.97;;
52918;SDS011;38793;52.690;6.812;2024-02-26T03:55:49;31.60;;;19.93;;
52918;SDS011;38793;52.690;6.812;2024-02-26T03:58:17;30.23;;;19.77;;
52918;SDS011;38793;52.690;6.812;2024-02-26T04:00:42;28.20;;;19.30;;
52918;SDS011;38793;52.690;6.812;2024-02-26T04:03:08;33.25;;;21.73;;
52918;SDS011;38793;52.690;6.812;2024-02-26T04:05:34;28.13;;;19.30;;
52918;SDS011;38793;52.690;6.812;2024-02-26T04:08:00;35.10;;;19.97;;
52918;SDS011;38793;52.690;6.812;2024-02-26T04:10:25;30.70;;;19.47;;
52918;SDS011;38793;52.690;6.812;2024-02-26T04:12:51;29.17;;;19.93;;
52918;SDS011;38793;52.690;6.812;2024-02-26T04:15:16;30.40;;;18.80;;
52918;SDS011;38793;52.690;6.812;2024-02-26T04:17:42;29.27;;;19.37;;
52918;SDS011;38793;52.690;6.812;2024-02-26T04:20:12;29.65;;;20.13;;
52918;SDS011;38793;52.690;6.812;2024-02-26T04:22:39;31.15;;;21.13;;
52918;SDS011;38793;52.690;6.812;2024-02-26T04:25:05;35.33;;;21.47;;
52918;SDS011;38793;52.690;6.812;2024-02-26T04:27:30;32.28;;;20.63;;
52918;SDS011;38793;52.690;6.812;2024-02-26T04:29:56;34.37;;;22.47;;
52918;SDS011;38793;52.690;6.812;2024-02-26T04:32:22;35.83;;;23.43;;
52918;SDS011;38793;52.690;6.812;2024-02-26T04:34:47;36.33;;;23.67;;
52918;SDS011;38793;52.690;6.812;2024-02-26T04:37:13;36.70;;;23.33;;
52918;SDS011;38793;52.690;6.812;2024-02-26T04:39:38;38.87;;;24.20;;
52918;SDS011;38793;52.690;6.812;2024-02-26T04:42:04;40.87;;;25.67;;
52918;SDS011;38793;52.690;6.812;2024-02-26T04:44:30;40.92;;;24.30;;
52918;SDS011;38793;52.690;6.812;2024-02-26T04:46:55;43.63;;;26.40;;
52918;SDS011;38793;52.690;6.812;2024-02-26T04:49:21;45.25;;;26.10;;
52918;SDS011;38793;52.690;6.812;2024-02-26T04:51:47;47.97;;;28.23;;
52918;SDS011;38793;52.690;6.812;2024-02-26T04:54:13;46.67;;;25.48;;
52918;SDS011;38793;52.690;6.812;2024-02-26T04:56:39;44.07;;;25.37;;
52918;SDS011;38793;52.690;6.812;2024-02-26T04:59:04;47.83;;;27.65;;
52918;SDS011;38793;52.690;6.812;2024-02-26T05:01:30;49.40;;;26.97;;
52918;SDS011;38793;52.690;6.812;2024-02-26T05:03:55;50.33;;;26.37;;
52918;SDS011;38793;52.690;6.812;2024-02-26T05:06:21;49.00;;;27.73;;
52918;SDS011;38793;52.690;6.812;2024-02-26T05:08:47;52.53;;;31.00;;
52918;SDS011;38793;52.690;6.812;2024-02-26T05:11:12;50.40;;;27.63;;
52918;SDS011;38793;52.690;6.812;2024-02-26T05:13:38;51.13;;;28.83;;
52918;SDS011;38793;52.690;6.812;2024-02-26T05:16:03;50.63;;;27.70;;
52918;SDS011;38793;52.690;6.812;2024-02-26T05:18:29;48.80;;;29.38;;
52918;SDS011;38793;52.690;6.812;2024-02-26T05:20:55;49.43;;;28.67;;
52918;SDS011;38793;52.690;6.812;2024-02-26T05:23:20;52.47;;;29.07;;
52918;SDS011;38793;52.690;6.812;2024-02-26T05:25:46;46.43;;;28.10;;
52918;SDS011;38793;52.690;6.812;2024-02-26T05:30:40;47.95;;;28.13;;
52918;SDS011;38793;52.690;6.812;2024-02-26T05:33:06;55.55;;;29.92;;
52918;SDS011;38793;52.690;6.812;2024-02-26T05:35:32;48.37;;;26.77;;
52918;SDS011;38793;52.690;6.812;2024-02-26T05:37:57;50.73;;;28.90;;
52918;SDS011;38793;52.690;6.812;2024-02-26T05:40:23;50.10;;;28.80;;
52918;SDS011;38793;52.690;6.812;2024-02-26T05:42:49;50.37;;;28.83;;
52918;SDS011;38793;52.690;6.812;2024-02-26T05:45:14;53.83;;;28.53;;
52918;SDS011;38793;52.690;6.812;2024-02-26T05:47:40;49.15;;;29.17;;
52918;SDS011;38793;52.690;6.812;2024-02-26T05:50:08;50.20;;;27.85;;
52918;SDS011;38793;52.690;6.812;2024-02-26T05:52:36;45.45;;;28.27;;
52918;SDS011;38793;52.690;6.812;2024-02-26T05:55:02;50.08;;;28.23;;
52918;SDS011;38793;52.690;6.812;2024-02-26T05:57:28;47.28;;;28.63;;
52918;SDS011;38793;52.690;6.812;2024-02-26T05:59:53;47.17;;;27.93;;
52918;SDS011;38793;52.690;6.812;2024-02-26T06:02:19;40.87;;;23.53;;
52918;SDS011;38793;52.690;6.812;2024-02-26T06:04:45;47.93;;;26.33;;
52918;SDS011;38793;52.690;6.812;2024-02-26T06:07:12;36.70;;;22.25;;
52918;SDS011;38793;52.690;6.812;2024-02-26T06:09:37;36.90;;;22.77;;
52918;SDS011;38793;52.690;6.812;2024-02-26T06:12:03;33.73;;;22.10;;
52918;SDS011;38793;52.690;6.812;2024-02-26T06:14:29;33.35;;;19.17;;
52918;SDS011;38793;52.690;6.812;2024-02-26T06:16:54;32.93;;;19.53;;
52918;SDS011;38793;52.690;6.812;2024-02-26T06:19:20;32.40;;;19.83;;
52918;SDS011;38793;52.690;6.812;2024-02-26T06:21:46;31.83;;;17.83;;
52918;SDS011;38793;52.690;6.812;2024-02-26T06:24:11;26.33;;;17.13;;
52918;SDS011;38793;52.690;6.812;2024-02-26T06:26:37;26.93;;;16.77;;
52918;SDS011;38793;52.690;6.812;2024-02-26T06:29:02;25.90;;;15.80;;
52918;SDS011;38793;52.690;6.812;2024-02-26T06:31:28;19.60;;;13.50;;
52918;SDS011;38793;52.690;6.812;2024-02-26T06:33:54;23.83;;;15.48;;
52918;SDS011;38793;52.690;6.812;2024-02-26T06:36:20;19.70;;;14.23;;
52918;SDS011;38793;52.690;6.812;2024-02-26T06:38:46;22.60;;;14.15;;
52918;SDS011;38793;52.690;6.812;2024-02-26T06:41:12;22.48;;;14.90;;
52918;SDS011;38793;52.690;6.812;2024-02-26T06:43:38;21.73;;;14.40;;
52918;SDS011;38793;52.690;6.812;2024-02-26T06:46:03;22.53;;;14.47;;
52918;SDS011;38793;52.690;6.812;2024-02-26T06:48:31;20.42;;;13.32;;
52918;SDS011;38793;52.690;6.812;2024-02-26T06:50:57;22.45;;;14.35;;
52918;SDS011;38793;52.690;6.812;2024-02-26T06:53:22;19.63;;;14.13;;
52918;SDS011;38793;52.690;6.812;2024-02-26T06:55:48;17.40;;;13.00;;
52918;SDS011;38793;52.690;6.812;2024-02-26T06:58:15;20.85;;;13.60;;
52918;SDS011;38793;52.690;6.812;2024-02-26T07:00:41;18.67;;;13.47;;
52918;SDS011;38793;52.690;6.812;2024-02-26T07:03:06;17.80;;;13.07;;
52918;SDS011;38793;52.690;6.812;2024-02-26T07:05:35;19.58;;;13.52;;
52918;SDS011;38793;52.690;6.812;2024-02-26T07:08:00;17.43;;;13.37;;
52918;SDS011;38793;52.690;6.812;2024-02-26T07:10:26;21.43;;;13.87;;
52918;SDS011;38793;52.690;6.812;2024-02-26T07:12:52;20.93;;;13.30;;
52918;SDS011;38793;52.690;6.812;2024-02-26T07:15:17;18.00;;;13.77;;
52918;SDS011;38793;52.690;6.812;2024-02-26T07:17:43;22.80;;;13.93;;
52918;SDS011;38793;52.690;6.812;2024-02-26T07:20:12;19.45;;;13.85;;
52918;SDS011;38793;52.690;6.812;2024-02-26T07:22:39;20.70;;;13.93;;
52918;SDS011;38793;52.690;6.812;2024-02-26T07:25:04;19.20;;;13.90;;
52918;SDS011;38793;52.690;6.812;2024-02-26T07:27:32;23.30;;;14.07;;
52918;SDS011;38793;52.690;6.812;2024-02-26T07:29:58;16.63;;;13.27;;
52918;SDS011;38793;52.690;6.812;2024-02-26T07:32:24;17.27;;;12.73;;
52918;SDS011;38793;52.690;6.812;2024-02-26T07:34:49;19.60;;;13.93;;
52918;SDS011;38793;52.690;6.812;2024-02-26T07:37:15;18.77;;;12.80;;
52918;SDS011;38793;52.690;6.812;2024-02-26T07:39:41;21.73;;;14.33;;
52918;SDS011;38793;52.690;6.812;2024-02-26T07:42:06;21.93;;;14.03;;
52918;SDS011;38793;52.690;6.812;2024-02-26T07:44:32;17.83;;;13.23;;
52918;SDS011;38793;52.690;6.812;2024-02-26T07:49:24;17.33;;;12.05;;
52918;SDS011;38793;52.690;6.812;2024-02-26T07:51:50;23.60;;;12.73;;
52918;SDS011;38793;52.690;6.812;2024-02-26T07:54:15;16.07;;;10.80;;
52918;SDS011;38793;52.690;6.812;2024-02-26T07:56:41;26.75;;;11.25;;
52918;SDS011;38793;52.690;6.812;2024-02-26T07:59:07;20.58;;;12.07;;
52918;SDS011;38793;52.690;6.812;2024-02-26T08:01:32;18.77;;;11.27;;
52918;SDS011;38793;52.690;6.812;2024-02-26T08:03:59;15.95;;;11.18;;
52918;SDS011;38793;52.690;6.812;2024-02-26T08:06:25;27.87;;;11.87;;
52918;SDS011;38793;52.690;6.812;2024-02-26T08:08:50;23.67;;;11.43;;
52918;SDS011;38793;52.690;6.812;2024-02-26T08:11:16;21.67;;;10.50;;
52918;SDS011;38793;52.690;6.812;2024-02-26T08:13:42;12.30;;;9.37;;
52918;SDS011;38793;52.690;6.812;2024-02-26T08:16:07;17.93;;;10.57;;
52918;SDS011;38793;52.690;6.812;2024-02-26T08:18:33;17.33;;;11.17;;
52918;SDS011;38793;52.690;6.812;2024-02-26T08:20:59;14.20;;;9.20;;
52918;SDS011;38793;52.690;6.812;2024-02-26T08:23:24;12.40;;;8.97;;
52918;SDS011;38793;52.690;6.812;2024-02-26T08:25:51;13.70;;;9.60;;
52918;SDS011;38793;52.690;6.812;2024-02-26T08:28:16;16.90;;;8.83;;
52918;SDS011;38793;52.690;6.812;2024-02-26T08:30:43;19.83;;;11.60;;
52918;SDS011;38793;52.690;6.812;2024-02-26T08:33:09;15.82;;;10.98;;
52918;SDS011;38793;52.690;6.812;2024-02-26T08:35:35;14.93;;;9.48;;
52918;SDS011;38793;52.690;6.812;2024-02-26T08:38:01;18.30;;;9.30;;
52918;SDS011;38793;52.690;6.812;2024-02-26T08:42:53;16.33;;;7.88;;
52918;SDS011;38793;52.690;6.812;2024-02-26T08:45:19;14.43;;;8.70;;
52918;SDS011;38793;52.690;6.812;2024-02-26T08:47:45;12.50;;;8.57;;
52918;SDS011;38793;52.690;6.812;2024-02-26T08:50:11;10.68;;;7.85;;
52918;SDS011;38793;52.690;6.812;2024-02-26T08:52:37;14.48;;;8.50;;
52918;SDS011;38793;52.690;6.812;2024-02-26T08:55:03;12.90;;;9.30;;
52918;SDS011;38793;52.690;6.812;2024-02-26T08:57:30;11.90;;;8.75;;
52918;SDS011;38793;52.690;6.812;2024-02-26T08:59:58;10.32;;;8.30;;
52918;SDS011;38793;52.690;6.812;2024-02-26T09:02:26;12.77;;;8.23;;
52918;SDS011;38793;52.690;6.812;2024-02-26T09:04:52;13.40;;;8.67;;
52918;SDS011;38793;52.690;6.812;2024-02-26T09:07:20;13.65;;;8.82;;
52918;SDS011;38793;52.690;6.812;2024-02-26T09:09:46;13.27;;;8.18;;
52918;SDS011;38793;52.690;6.812;2024-02-26T09:12:11;11.47;;;9.23;;
52918;SDS011;38793;52.690;6.812;2024-02-26T09:14:37;14.07;;;9.03;;
52918;SDS011;38793;52.690;6.812;2024-02-26T09:17:02;9.67;;;7.73;;
52918;SDS011;38793;52.690;6.812;2024-02-26T09:19:28;11.25;;;7.85;;
52918;SDS011;38793;52.690;6.812;2024-02-26T09:21:54;12.37;;;8.53;;
52918;SDS011;38793;52.690;6.812;2024-02-26T09:24:23;11.30;;;7.88;;
52918;SDS011;38793;52.690;6.812;2024-02-26T09:26:49;10.45;;;8.57;;
52918;SDS011;38793;52.690;6.812;2024-02-26T09:29:15;10.82;;;8.07;;
52918;SDS011;38793;52.690;6.812;2024-02-26T09:31:40;12.03;;;8.87;;
52918;SDS011;38793;52.690;6.812;2024-02-26T09:34:06;10.00;;;7.97;;
52918;SDS011;38793;52.690;6.812;2024-02-26T09:36:33;11.80;;;8.27;;
52918;SDS011;38793;52.690;6.812;2024-02-26T09:41:24;8.52;;;6.55;;
52918;SDS011;38793;52.690;6.812;2024-02-26T09:43:55;11.48;;;8.30;;
52918;SDS011;38793;52.690;6.812;2024-02-26T09:46:22;11.65;;;7.55;;
52918;SDS011;38793;52.690;6.812;2024-02-26T09:51:14;10.20;;;7.68;;
52918;SDS011;38793;52.690;6.812;2024-02-26T09:53:45;9.57;;;8.25;;
52918;SDS011;38793;52.690;6.812;2024-02-26T09:56:14;9.98;;;8.18;;
52918;SDS011;38793;52.690;6.812;2024-02-26T09:58:41;12.15;;;7.75;;
52918;SDS011;38793;52.690;6.812;2024-02-26T10:01:10;9.65;;;7.60;;
52918;SDS011;38793;52.690;6.812;2024-02-26T10:03:38;10.00;;;7.63;;
52918;SDS011;38793;52.690;6.812;2024-02-26T10:06:09;12.00;;;7.90;;
52918;SDS011;38793;52.690;6.812;2024-02-26T10:08:35;15.65;;;8.27;;
52918;SDS011;38793;52.690;6.812;2024-02-26T10:11:04;10.23;;;8.25;;
52918;SDS011;38793;52.690;6.812;2024-02-26T10:13:31;8.52;;;7.45;;
52918;SDS011;38793;52.690;6.812;2024-02-26T10:15:57;10.50;;;7.47;;
52918;SDS011;38793;52.690;6.812;2024-02-26T10:18:23;8.25;;;7.20;;
52918;SDS011;38793;52.690;6.812;2024-02-26T10:21:02;10.40;;;8.35;;
52918;SDS011;38793;52.690;6.812;2024-02-26T10:23:28;8.68;;;7.57;;
52918;SDS011;38793;52.690;6.812;2024-02-26T10:25:53;10.13;;;7.33;;
52918;SDS011;38793;52.690;6.812;2024-02-26T10:28:20;10.02;;;7.50;;
52918;SDS011;38793;52.690;6.812;2024-02-26T10:30:46;9.95;;;7.50;;
52918;SDS011;38793;52.690;6.812;2024-02-26T10:33:12;10.00;;;7.77;;
52918;SDS011;38793;52.690;6.812;2024-02-26T10:35:46;11.32;;;8.38;;
52918;SDS011;38793;52.690;6.812;2024-02-26T10:38:12;9.05;;;7.75;;
52918;SDS011;38793;52.690;6.812;2024-02-26T10:40:38;9.75;;;7.70;;
52918;SDS011;38793;52.690;6.812;2024-02-26T10:43:04;8.97;;;7.50;;
52918;SDS011;38793;52.690;6.812;2024-02-26T10:45:30;9.60;;;7.80;;
52918;SDS011;38793;52.690;6.812;2024-02-26T10:47:57;8.52;;;6.63;;
52918;SDS011;38793;52.690;6.812;2024-02-26T10:50:23;9.18;;;7.35;;
52918;SDS011;38793;52.690;6.812;2024-02-26T10:52:50;9.07;;;6.95;;
52918;SDS011;38793;52.690;6.812;2024-02-26T10:55:17;8.88;;;7.30;;
52918;SDS011;38793;52.690;6.812;2024-02-26T10:57:43;7.85;;;6.55;;
52918;SDS011;38793;52.690;6.812;2024-02-26T11:00:10;8.88;;;7.65;;
52918;SDS011;38793;52.690;6.812;2024-02-26T11:02:40;8.25;;;7.18;;
52918;SDS011;38793;52.690;6.812;2024-02-26T11:07:36;7.53;;;6.75;;
52918;SDS011;38793;52.690;6.812;2024-02-26T11:10:05;7.65;;;6.85;;
52918;SDS011;38793;52.690;6.812;2024-02-26T11:12:31;7.78;;;6.78;;
52918;SDS011;38793;52.690;6.812;2024-02-26T11:15:00;7.78;;;6.82;;
52918;SDS011;38793;52.690;6.812;2024-02-26T11:17:27;7.97;;;7.15;;
52918;SDS011;38793;52.690;6.812;2024-02-26T11:19:57;8.30;;;6.32;;
52918;SDS011;38793;52.690;6.812;2024-02-26T11:22:26;9.10;;;7.63;;
52918;SDS011;38793;52.690;6.812;2024-02-26T11:24:55;9.52;;;7.05;;
52918;SDS011;38793;52.690;6.812;2024-02-26T11:27:56;8.43;;;7.38;;
52918;SDS011;38793;52.690;6.812;2024-02-26T11:30:16;7.55;;;6.68;;
52918;SDS011;38793;52.690;6.812;2024-02-26T11:32:46;9.05;;;6.90;;
52918;SDS011;38793;52.690;6.812;2024-02-26T11:35:13;8.10;;;6.47;;
52918;SDS011;38793;52.690;6.812;2024-02-26T11:37:41;8.70;;;7.22;;
52918;SDS011;38793;52.690;6.812;2024-02-26T11:40:19;9.60;;;7.47;;
52918;SDS011;38793;52.690;6.812;2024-02-26T11:42:45;7.75;;;6.90;;
52918;SDS011;38793;52.690;6.812;2024-02-26T11:45:37;7.93;;;6.60;;
52918;SDS011;38793;52.690;6.812;2024-02-26T11:48:04;10.57;;;7.85;;
52918;SDS011;38793;52.690;6.812;2024-02-26T11:50:39;9.68;;;7.25;;
52918;SDS011;38793;52.690;6.812;2024-02-26T11:53:26;9.50;;;7.43;;
52918;SDS011;38793;52.690;6.812;2024-02-26T11:58:47;21.15;;;8.02;;
52918;SDS011;38793;52.690;6.812;2024-02-26T12:04:07;9.38;;;7.60;;
52918;SDS011;38793;52.690;6.812;2024-02-26T12:06:41;8.80;;;6.68;;
52918;SDS011;38793;52.690;6.812;2024-02-26T12:09:07;11.10;;;6.65;;
52918;SDS011;38793;52.690;6.812;2024-02-26T12:11:39;11.85;;;8.10;;
52918;SDS011;38793;52.690;6.812;2024-02-26T12:14:07;9.95;;;7.00;;
52918;SDS011;38793;52.690;6.812;2024-02-26T12:16:37;10.77;;;7.53;;
52918;SDS011;38793;52.690;6.812;2024-02-26T12:19:04;10.20;;;7.38;;
52918;SDS011;38793;52.690;6.812;2024-02-26T12:21:33;11.20;;;8.43;;
52918;SDS011;38793;52.690;6.812;2024-02-26T12:24:12;13.20;;;8.85;;
52918;SDS011;38793;52.690;6.812;2024-02-26T12:26:39;10.70;;;8.80;;
52918;SDS011;38793;52.690;6.812;2024-02-26T12:29:05;9.75;;;7.45;;
52918;SDS011;38793;52.690;6.812;2024-02-26T12:31:32;14.35;;;8.38;;
52918;SDS011;38793;52.690;6.812;2024-02-26T12:33:58;13.00;;;8.77;;
52918;SDS011;38793;52.690;6.812;2024-02-26T12:36:26;11.38;;;7.60;;
52918;SDS011;38793;52.690;6.812;2024-02-26T12:38:52;10.60;;;8.20;;
52918;SDS011;38793;52.690;6.812;2024-02-26T12:41:18;12.02;;;8.60;;
52918;SDS011;38793;52.690;6.812;2024-02-26T12:43:44;11.00;;;8.73;;
52918;SDS011;38793;52.690;6.812;2024-02-26T12:46:11;9.68;;;8.15;;
52918;SDS011;38793;52.690;6.812;2024-02-26T12:48:38;8.88;;;7.78;;
52918;SDS011;38793;52.690;6.812;2024-02-26T12:53:31;10.77;;;7.80;;
52918;SDS011;38793;52.690;6.812;2024-02-26T12:55:57;12.15;;;8.02;;
52918;SDS011;38793;52.690;6.812;2024-02-26T12:58:23;11.80;;;8.13;;
52918;SDS011;38793;52.690;6.812;2024-02-26T13:00:53;9.88;;;8.13;;
52918;SDS011;38793;52.690;6.812;2024-02-26T13:03:20;9.82;;;7.38;;
52918;SDS011;38793;52.690;6.812;2024-02-26T13:05:47;9.60;;;7.60;;
52918;SDS011;38793;52.690;6.812;2024-02-26T13:08:20;11.07;;;7.50;;
52918;SDS011;38793;52.690;6.812;2024-02-26T13:10:46;8.88;;;7.35;;
52918;SDS011;38793;52.690;6.812;2024-02-26T13:13:14;9.23;;;7.47;;
52918;SDS011;38793;52.690;6.812;2024-02-26T13:15:40;10.15;;;6.38;;
52918;SDS011;38793;52.690;6.812;2024-02-26T13:18:10;8.48;;;7.57;;
52918;SDS011;38793;52.690;6.812;2024-02-26T13:20:36;7.55;;;5.82;;
52918;SDS011;38793;52.690;6.812;2024-02-26T13:23:02;8.60;;;7.30;;
52918;SDS011;38793;52.690;6.812;2024-02-26T13:25:29;8.18;;;6.28;;
52918;SDS011;38793;52.690;6.812;2024-02-26T13:30:53;8.80;;;6.70;;
52918;SDS011;38793;52.690;6.812;2024-02-26T13:33:24;7.82;;;6.30;;
52918;SDS011;38793;52.690;6.812;2024-02-26T13:35:51;6.72;;;5.97;;
52918;SDS011;38793;52.690;6.812;2024-02-26T13:38:18;8.27;;;7.38;;
52918;SDS011;38793;52.690;6.812;2024-02-26T13:40:43;7.45;;;6.57;;
52918;SDS011;38793;52.690;6.812;2024-02-26T13:43:09;8.37;;;6.47;;
52918;SDS011;38793;52.690;6.812;2024-02-26T13:45:35;8.17;;;6.23;;
52918;SDS011;38793;52.690;6.812;2024-02-26T13:48:03;7.88;;;6.32;;
52918;SDS011;38793;52.690;6.812;2024-02-26T13:50:30;9.23;;;6.47;;
52918;SDS011;38793;52.690;6.812;2024-02-26T13:52:55;8.10;;;6.78;;
52918;SDS011;38793;52.690;6.812;2024-02-26T13:55:22;8.98;;;7.20;;
52918;SDS011;38793;52.690;6.812;2024-02-26T13:57:51;8.85;;;6.35;;
52918;SDS011;38793;52.690;6.812;2024-02-26T14:00:18;8.05;;;6.43;;
52918;SDS011;38793;52.690;6.812;2024-02-26T14:02:44;8.75;;;7.10;;
52918;SDS011;38793;52.690;6.812;2024-02-26T14:05:10;6.23;;;5.63;;
52918;SDS011;38793;52.690;6.812;2024-02-26T14:07:36;10.25;;;6.72;;
52918;SDS011;38793;52.690;6.812;2024-02-26T14:10:01;7.37;;;6.43;;
52918;SDS011;38793;52.690;6.812;2024-02-26T14:12:27;10.57;;;7.10;;
52918;SDS011;38793;52.690;6.812;2024-02-26T14:14:53;8.50;;;6.67;;
52918;SDS011;38793;52.690;6.812;2024-02-26T14:17:20;8.25;;;6.50;;
52918;SDS011;38793;52.690;6.812;2024-02-26T14:19:46;10.57;;;7.85;;
52918;SDS011;38793;52.690;6.812;2024-02-26T14:22:13;7.72;;;6.85;;
52918;SDS011;38793;52.690;6.812;2024-02-26T14:24:41;9.98;;;6.97;;
52918;SDS011;38793;52.690;6.812;2024-02-26T14:27:10;8.77;;;7.47;;
52918;SDS011;38793;52.690;6.812;2024-02-26T14:29:40;9.23;;;7.43;;
52918;SDS011;38793;52.690;6.812;2024-02-26T14:32:08;9.45;;;8.15;;
52918;SDS011;38793;52.690;6.812;2024-02-26T14:34:36;10.85;;;8.18;;
52918;SDS011;38793;52.690;6.812;2024-02-26T14:37:02;10.23;;;8.32;;
52918;SDS011;38793;52.690;6.812;2024-02-26T14:39:28;11.07;;;7.40;;
52918;SDS011;38793;52.690;6.812;2024-02-26T14:41:57;10.73;;;8.80;;
52918;SDS011;38793;52.690;6.812;2024-02-26T14:44:23;11.13;;;8.88;;
52918;SDS011;38793;52.690;6.812;2024-02-26T14:46:49;10.38;;;9.02;;
52918;SDS011;38793;52.690;6.812;2024-02-26T14:49:15;11.65;;;9.32;;
52918;SDS011;38793;52.690;6.812;2024-02-26T14:51:41;9.90;;;8.27;;
52918;SDS011;38793;52.690;6.812;2024-02-26T14:54:07;12.02;;;9.23;;
52918;SDS011;38793;52.690;6.812;2024-02-26T14:56:33;9.87;;;8.30;;
52918;SDS011;38793;52.690;6.812;2024-02-26T14:58:58;11.60;;;8.57;;
52918;SDS011;38793;52.690;6.812;2024-02-26T15:01:24;14.27;;;10.93;;
52918;SDS011;38793;52.690;6.812;2024-02-26T15:03:50;11.03;;;9.40;;
52918;SDS011;38793;52.690;6.812;2024-02-26T15:06:16;12.82;;;10.55;;